Latest Weather Observations for Tibooburra Airport

IDN60801

Issued at 11:35 am EST Wednesday 23 July 2014 (issued every 30 minutes, with the page automatically refreshed every 10 minutes)

About weather observations | Map of weather stations | Latest weather observations for NSW | Other Formats
Station Details ID: 046126 Name: TIBOOBURRA AIRPORT Lat: -29.44 Lon: 142.06 Height: 176.4 m
Data from the previous 72 hours. | See also: Recent months for locations in New South Wales
Date/Time
EST
Temp
°C
App
Temp
°C
Dew
Point
Rel
Hum
%
Delta-T
°C
Wind Press
QNH
hPa
Press
MSL
hPa
Rain
since 9 am
mm
Dir
 
Spd
km/h
Gust
km/h
Spd
kts
Gust
kts
23/11:30am 17.2 11.8 1.2 34 7.1 NNE 19 26 10 14 1020.1 - 0.0
23/11:00am 15.8 10.1 0.8 36 6.5 NNE 20 26 11 14 1020.8 1020.9 0.0
23/10:30am 15.0 10.0 1.2 39 6.0 NE 17 22 9 12 1020.8 - 0.0
23/10:00am 14.1 9.4 1.1 41 5.6 ENE 15 19 8 10 1020.9 1021.0 0.0
23/09:30am 13.4 8.7 0.8 42 5.4 NE 15 19 8 10 1020.9 - 0.0
23/09:00am 12.4 7.6 0.2 43 5.1 ENE 15 19 8 10 1021.1 1021.2 0.0
23/08:30am 11.6 6.7 -0.2 44 4.8 NE 15 19 8 10 1021.0 - 0.0
23/08:00am 10.9 6.4 -0.5 45 4.6 NE 13 17 7 9 1020.7 1020.8 0.0
23/07:30am 10.2 6.0 -1.2 45 4.5 E 11 15 6 8 1020.4 - 0.0
23/07:00am 10.0 6.1 -1.4 45 4.5 ENE 9 13 5 7 1020.3 1020.4 0.0
23/06:30am 10.1 5.8 -1.3 45 4.5 E 11 13 6 7 1020.3 - 0.0
23/06:00am 10.1 5.0 -1.6 44 4.6 E 15 17 8 9 1019.9 1020.0 0.0
23/05:30am 10.6 5.2 -1.4 43 4.7 ESE 17 19 9 10 1020.2 - 0.0
23/05:00am 11.1 6.5 -1.3 42 4.9 ENE 13 15 7 8 1020.5 1020.6 0.0
23/04:30am 11.1 7.2 -1.3 42 4.9 ESE 9 13 5 7 1020.6 - 0.0
23/04:00am 11.1 7.6 -1.6 41 5.0 E 7 11 4 6 1020.9 1021.0 0.0
23/03:30am 11.0 7.1 -1.7 41 5.0 E 9 13 5 7 1020.8 - 0.0
23/03:00am 11.2 6.9 -1.5 41 5.0 ESE 11 13 6 7 1021.3 1021.4 0.0
23/02:30am 11.1 7.6 -1.6 41 5.0 SSE 7 7 4 4 1021.5 - 0.0
23/02:00am 11.1 7.6 -1.6 41 5.0 SE 7 9 4 5 1021.6 1021.7 0.0
23/01:30am 11.1 7.5 -2.0 40 5.1 ESE 7 9 4 5 1021.2 - 0.0
23/01:00am 11.0 7.0 -2.1 40 5.1 ESE 9 11 5 6 1021.3 1021.4 0.0
23/12:30am 11.4 7.5 -1.7 40 5.2 ESE 9 9 5 5 1021.7 - 0.0
23/12:00am 11.2 7.2 -1.9 40 5.1 ESE 9 11 5 6 1021.8 1021.9 0.0
 
Date/Time
EST
Temp
°C
App
Temp
°C
Dew
Point
Rel
Hum
%
Delta-T
°C
Wind Press
QNH
hPa
Press
MSL
hPa
Rain
since 9 am
mm
Dir
 
Spd
km/h
Gust
km/h
Spd
kts
Gust
kts
22/11:30pm 11.1 6.7 -2.3 39 5.2 ESE 11 13 6 7 1021.8 - 0.0
22/11:00pm 11.6 8.0 -1.9 39 5.3 SE 7 9 4 5 1022.5 1022.5 0.0
22/10:30pm 11.7 8.3 -1.8 39 5.4 S 6 7 3 4 1022.5 - 0.0
22/10:00pm 12.0 8.6 -2.2 37 5.6 SSE 6 7 3 4 1022.5 1022.5 0.0
22/09:30pm 11.7 9.0 -2.1 38 5.4 SSE 2 7 1 4 1022.2 - 0.0
22/09:00pm 12.4 8.4 -2.2 36 5.8 SSE 9 13 5 7 1022.2 1022.2 0.0
22/08:30pm 13.2 8.4 -2.3 34 6.2 SE 13 15 7 8 1021.9 - 0.0
22/08:00pm 14.3 9.2 -1.7 33 6.5 SE 15 17 8 9 1021.9 1022.0 0.0
22/07:30pm 14.4 9.7 -2.1 32 6.7 SE 13 15 7 8 1021.9 - 0.0
22/07:00pm 14.3 9.5 -2.2 32 6.6 ESE 13 15 7 8 1021.3 1021.4 0.0
22/06:30pm 15.2 11.6 -2.2 30 7.1 E 7 9 4 5 1021.5 - 0.0
22/06:00pm 16.7 13.1 -1.9 28 7.7 E 7 7 4 4 1021.2 1021.3 0.0
22/05:30pm 18.2 14.7 -1.6 26 8.4 E 7 11 4 6 1021.3 - 0.0
22/05:00pm 18.8 15.3 -1.6 25 8.7 E 7 13 4 7 1021.0 1021.1 0.0
22/04:30pm 19.0 15.0 -2.0 24 8.9 E 9 20 5 11 1021.0 - 0.0
22/04:00pm 19.3 15.8 -1.7 24 9.0 SE 7 13 4 7 1021.2 1021.3 0.0
22/03:30pm 18.9 14.5 -2.1 24 8.9 SE 11 19 6 10 1021.6 - 0.0
22/03:00pm 18.8 14.9 -1.6 25 8.7 ESE 9 15 5 8 1021.7 1021.8 0.0
22/02:30pm 19.0 15.7 -1.4 25 8.8 S 6 13 3 7 1022.0 - 0.0
22/02:00pm 18.6 14.7 -1.3 26 8.5 SE 9 17 5 9 1022.0 1022.1 0.0
22/01:30pm 18.3 13.7 -1.0 27 8.3 SE 13 19 7 10 1022.4 - 0.0
22/01:00pm 17.9 13.8 -0.4 29 7.9 E 11 19 6 10 1023.1 1023.2 0.0
22/12:30pm 17.7 13.6 -0.1 30 7.8 E 11 20 6 11 1023.7 - 0.0
22/12:00pm 17.6 13.2 0.3 31 7.6 E 13 19 7 10 1024.0 1024.1 0.0
22/11:30am 17.2 12.9 0.8 33 7.3 ENE 13 17 7 9 1024.5 - 0.0
22/11:00am 16.3 12.3 0.4 34 6.9 E 11 15 6 8 1024.9 1025.0 0.0
22/10:30am 15.0 10.6 0.4 37 6.3 E 13 19 7 10 1025.2 - 0.0
22/10:00am 13.5 9.1 0.2 40 5.6 E 13 17 7 9 1025.1 1025.2 0.0
22/09:30am 11.9 8.1 -0.6 42 5.1 SE 9 13 5 7 1024.9 - 0.0
22/09:00am 10.4 6.9 -1.0 45 4.5 ESE 7 11 4 6 1024.6 1024.7 0.0
22/08:30am 7.9 5.6 -2.4 48 3.9 CALM 0 0 0 0 1024.4 - 0.0
22/08:00am 6.1 2.6 -2.7 53 3.2 SW 6 6 3 3 1024.0 1024.1 0.0
22/07:30am 5.6 2.1 -2.7 55 3.0 S 6 7 3 4 1023.7 - 0.0
22/07:00am 5.9 2.5 -2.4 55 3.0 SSE 6 7 3 4 1023.3 1023.4 0.0
22/06:30am 4.9 1.3 -3.6 54 3.0 SSW 6 7 3 4 1022.9 - 0.0
22/06:00am 5.6 1.9 -3.2 53 3.1 SW 7 9 4 5 1022.7 1022.7 0.0
22/05:30am 5.7 1.9 -3.4 52 3.2 WSW 7 9 4 5 1022.4 - 0.0
22/05:00am 5.7 2.0 -3.1 53 3.1 WSW 7 9 4 5 1022.2 1022.2 0.0
22/04:30am 5.6 2.0 -3.7 51 3.3 SSW 6 7 3 4 1022.0 - 0.0
22/04:00am 6.8 4.4 -2.9 50 3.5 CALM 0 7 0 4 1021.9 1022.0 0.0
22/03:30am 8.3 5.7 -2.0 48 3.9 SE 2 6 1 3 1021.8 - 0.0
22/03:00am 8.5 6.2 -2.1 47 4.0 CALM 0 0 0 0 1021.7 1021.8 0.0
22/02:30am 7.7 4.6 -2.9 47 3.9 WSW 4 7 2 4 1021.9 - 0.0
22/02:00am 8.5 6.2 -2.1 47 4.0 CALM 0 0 0 0 1022.2 1022.2 0.0
22/01:30am 9.2 6.9 -2.1 45 4.3 CALM 0 0 0 0 1022.3 - 0.0
22/01:00am 9.4 5.8 -1.9 45 4.3 ESE 7 7 4 4 1022.3 1022.3 0.0
22/12:30am 10.4 7.1 -1.3 44 4.6 SE 6 6 3 3 1022.4 - 0.0
22/12:00am 9.2 6.9 -2.7 43 4.5 CALM 0 0 0 0 1022.7 1022.7 0.0
 
Date/Time
EST
Temp
°C
App
Temp
°C
Dew
Point
Rel
Hum
%
Delta-T
°C
Wind Press
QNH
hPa
Press
MSL
hPa
Rain
since 9 am
mm
Dir
 
Spd
km/h
Gust
km/h
Spd
kts
Gust
kts
21/11:30pm 9.5 6.4 -2.4 43 4.5 SSW 4 6 2 3 1022.7 - 0.0
21/11:00pm 10.2 6.7 -2.8 40 4.9 S 6 6 3 3 1023.0 1023.0 0.0
21/10:30pm 10.5 7.0 -2.5 40 5.0 S 6 6 3 3 1023.1 - 0.0
21/10:00pm 10.1 6.9 -3.2 39 5.0 SSE 4 6 2 3 1022.9 1022.9 0.0
21/09:30pm 10.5 6.7 -3.6 37 5.3 SSE 7 9 4 5 1022.9 - 0.0
21/09:00pm 10.8 7.6 -3.7 36 5.4 S 4 7 2 4 1022.8 1022.8 0.0
21/08:30pm 11.3 7.5 -3.6 35 5.6 SSE 7 7 4 4 1022.6 - 0.0
21/08:00pm 11.7 6.8 -3.6 34 5.8 SE 13 13 7 7 1022.0 1022.1 0.0
21/07:30pm 12.0 7.0 -4.2 32 6.1 ESE 13 15 7 8 1021.7 - 0.0
21/07:00pm 13.0 7.9 -5.1 28 6.7 ESE 13 17 7 9 1021.6 1021.7 0.0
21/06:30pm 14.8 11.9 -4.0 27 7.3 ESE 2 7 1 4 1021.3 - 0.0
21/06:00pm 16.0 12.4 -4.0 25 7.9 S 6 6 3 3 1021.1 1021.2 0.0
21/05:30pm 17.7 14.0 -4.3 22 8.8 S 6 9 3 5 1020.8 - 0.0
21/05:00pm 18.2 14.5 -4.5 21 9.0 SSW 6 9 3 5 1020.7 1020.8 0.0
21/04:30pm 18.4 15.1 -4.3 21 9.1 SE 4 11 2 6 1020.5 - 0.0
21/04:00pm 18.8 15.5 -4.0 21 9.2 E 4 9 2 5 1020.4 1020.5 0.0
21/03:30pm 18.8 16.0 -3.3 22 9.1 SSW 2 9 1 5 1020.3 - 0.0
21/03:00pm 19.0 16.3 -2.6 23 9.0 S 2 7 1 4 1020.2 1020.3 0.0
21/02:30pm 18.5 14.5 -2.4 24 8.8 N 9 13 5 7 1020.4 - 0.0
21/02:00pm 18.8 16.3 -1.1 26 8.6 SSE 2 7 1 4 1020.6 1020.7 0.0
21/01:30pm 17.6 13.7 -1.6 27 8.1 NNE 9 19 5 10 1021.1 - 0.0
21/01:00pm 17.7 13.9 -0.5 29 7.8 N 9 15 5 8 1021.6 1021.7 0.0
21/12:30pm 16.4 11.8 -0.8 31 7.3 N 13 19 7 10 1022.2 - 0.0
21/12:00pm 16.7 11.9 0.4 33 7.1 NNE 15 26 8 14 1022.7 1022.7 0.0
21/11:30am 15.7 10.2 0.7 36 6.5 NNE 19 22 10 12 1023.1 - 0.0
21/11:00am 14.7 9.6 0.5 38 6.1 N 17 24 9 13 1023.3 1023.4 0.0
21/10:30am 13.5 8.0 0.5 41 5.5 N 19 24 10 13 1023.6 - 0.0
21/10:00am 12.3 7.5 0.1 43 5.1 NNE 15 19 8 10 1023.8 1023.9 0.0
21/09:30am 10.3 6.1 -0.8 46 4.4 NE 11 13 6 7 1023.7 - 0.0
21/09:00am 8.5 5.0 -1.3 50 3.8 ENE 7 9 4 5 1023.5 1023.6 0.0
21/08:30am 7.0 3.5 -1.7 54 3.3 NE 7 7 4 4 1023.4 - 0.0
21/08:00am 5.6 2.0 -2.0 58 2.8 ENE 7 9 4 5 1023.2 1023.3 0.0
21/07:30am 4.7 0.7 -2.4 60 2.6 ENE 9 11 5 6 1022.9 - 0.0
21/07:00am 5.4 1.4 -2.0 59 2.7 ENE 9 9 5 5 1022.8 1022.8 0.0
21/06:30am 5.5 1.9 -1.9 59 2.7 NE 7 9 4 5 1022.5 - 0.0
21/06:00am 5.9 3.7 -1.5 59 2.8 CALM 0 9 0 5 1022.4 1022.4 0.0
21/05:30am 5.4 3.1 -2.2 58 2.8 CALM 0 0 0 0 1022.3 - 0.0
21/05:00am 5.9 3.7 -1.7 58 2.8 CALM 0 0 0 0 1022.3 1022.3 0.0
21/04:30am 5.5 2.9 -1.9 59 2.7 SE 2 6 1 3 1022.3 - 0.0
21/04:00am 5.9 3.6 -2.0 57 2.9 CALM 0 0 0 0 1022.2 1022.2 0.0
21/03:30am 6.2 4.0 -1.9 56 3.0 CALM 0 0 0 0 1022.4 - 0.0
21/03:00am 6.8 4.5 -2.1 53 3.3 CALM 0 0 0 0 1022.5 1022.5 0.0
21/02:30am 7.6 5.4 -1.6 52 3.5 CALM 0 0 0 0 1022.5 - 0.0
21/02:00am 7.4 4.4 -1.8 52 3.5 ESE 4 6 2 3 1022.7 1022.7 0.0
21/01:30am 6.8 4.5 -2.4 52 3.4 CALM 0 0 0 0 1022.9 - 0.0
21/01:00am 6.9 4.5 -2.8 50 3.5 CALM 0 0 0 0 1023.0 1023.0 0.0
21/12:30am 7.2 4.0 -3.1 48 3.8 E 4 7 2 4 1023.2 - 0.0
21/12:00am 7.8 4.2 -2.2 49 3.7 E 7 7 4 4 1023.4 1023.5 0.0
 
Date/Time
EST
Temp
°C
App
Temp
°C
Dew
Point
Rel
Hum
%
Delta-T
°C
Wind Press
QNH
hPa
Press
MSL
hPa
Rain
since 9 am
mm
Dir
 
Spd
km/h
Gust
km/h
Spd
kts
Gust
kts
20/11:30pm 7.6 3.5 -2.7 48 3.8 E 9 11 5 6 1023.3 - 0.0
20/11:00pm 8.1 4.1 -2.5 47 3.9 E 9 11 5 6 1023.5 1023.6 0.0
20/10:30pm 8.3 3.6 -2.0 48 3.9 E 13 13 7 7 1023.6 - 0.0
20/10:00pm 8.3 3.9 -2.6 46 4.1 ENE 11 13 6 7 1023.6 1023.7 0.0
20/09:30pm 9.7 5.8 -1.6 45 4.4 ESE 9 11 5 6 1023.5 - 0.0
20/09:00pm 9.6 6.1 -1.4 46 4.3 SE 7 9 4 5 1023.8 1023.9 0.0
20/08:30pm 9.6 5.6 -2.0 44 4.5 SE 9 11 5 6 1023.8 - 0.0
20/08:00pm 10.1 5.7 -2.2 42 4.7 ESE 11 13 6 7 1023.7 1023.8 0.0
20/07:30pm 10.7 5.9 -2.3 40 5.0 ESE 13 13 7 7 1023.7 - 0.0
20/07:00pm 11.4 6.7 -2.0 39 5.2 ESE 13 15 7 8 1023.5 1023.6 0.0
20/06:30pm 12.5 7.8 -2.1 36 5.8 ESE 13 15 7 8 1023.2 - 0.0
20/06:00pm 13.8 8.7 -1.8 34 6.3 ESE 15 17 8 9 1022.8 1022.8 0.0
20/05:30pm 15.1 9.7 -1.5 32 6.9 ESE 17 20 9 11 1022.5 - 0.0
20/05:00pm 15.7 9.9 -1.4 31 7.1 E 19 24 10 13 1022.3 1022.3 0.0
20/04:30pm 16.1 10.4 -1.0 31 7.2 ESE 19 26 10 14 1022.3 - 0.0
20/04:00pm 16.0 10.5 -2.0 29 7.4 ESE 17 24 9 13 1022.6 1022.6 0.0
20/03:30pm 16.6 11.2 -1.5 29 7.6 E 17 24 9 13 1022.6 - 0.0
20/03:00pm 17.1 11.8 -0.6 30 7.6 ENE 17 28 9 15 1022.9 1022.9 0.0
20/02:30pm 16.2 10.8 -1.4 30 7.4 E 17 41 9 22 1023.2 - 0.0
20/02:00pm 16.1 11.1 -1.0 31 7.2 E 15 30 8 16 1023.5 1023.6 0.0
20/01:30pm 15.5 10.1 -1.1 32 6.9 E 17 28 9 15 1023.8 - 0.0
20/01:00pm 15.5 9.9 0.1 35 6.6 E 19 28 10 15 1024.1 1024.2 0.0
20/12:30pm 15.2 9.6 -0.1 35 6.5 E 19 26 10 14 1025.0 - 0.0
20/12:00pm 14.1 8.3 0.0 38 5.9 E 20 26 11 14 1025.5 1025.6 0.0

Other Formats:

Comma delimited format used in spreadsheet applications
http://www.bom.gov.au/fwo/IDN60801/IDN60801.95485.axf

JavaScript Object Notation format (JSON) in row-major order
http://www.bom.gov.au/fwo/IDN60801/IDN60801.95485.json